KCHD/CHD METAR and TAF weather

Enter ICAO airport designator
Station Type Date Time Source
KCHD METAR 2020/07/04 01:47 UTC NOAA

KCHD 040147Z 29007KT 10SM SCT150 38/13 A2983


Station Type Date Time Source
KCHD Decoded METAR 2020/07/04 01:47 UTC NOAA

Chandler, Chandler Municipal Airport, AZ, United States (KCHD) 33-16-09N 111-48-40W
Jul 03, 2020 - 09:47 PM EDT / 2020.07.04 0147 UTC
Wind: from the WNW (290 degrees) at 8 MPH (7 KT):0
Visibility: 10 mile(s):0
Sky conditions: partly cloudy
Temperature: 100 F (38 C)
Heat index: 98.2 F (36.8 C):1
Dew Point: 55 F (13 C)
Relative Humidity: 22%
Pressure (altimeter): 29.83 in. Hg (1010 hPa)
ob: KCHD 040147Z 29007KT 10SM SCT150 38/13 A2983
cycle: 2

Station Type Date Time Source
KCHD TAF UTC NOAA

Error!

Example: see airport list